Date,TemperatureHighF,TemperatureAvgF,TemperatureLowF,DewpointHighF,DewpointAvgF,DewpointLowF,HumidityHigh,HumidityAvg,HumidityLow,PressureMaxIn,PressureMinIn,WindSpeedMaxMPH,WindSpeedAvgMPH,GustSpeedMaxMPH,PrecipitationSumIn
2013-1-1,42.0,40.2,38.0,31.0,27.6,23.0,70,61,50,30.00,29.89,3,0,10,0.00
2013-1-2,38.0,33.9,29.0,29.0,21.1,14.0,70,59,50,30.23,29.98,7,1,15,0.00
2013-1-3,38.0,31.0,27.0,23.0,18.3,15.0,69,59,48,30.24,30.14,3,0,8,0.00
2013-1-4,43.0,35.0,28.0,24.0,21.2,20.0,73,58,44,30.21,30.09,9,2,21,0.00
2013-1-5,44.0,37.4,32.0,30.0,22.6,19.0,76,55,45,30.38,30.14,6,1,16,0.00
2013-1-6,51.0,42.2,32.0,32.0,29.8,27.0,84,63,45,30.18,30.01,5,1,16,0.01
2013-1-7,45.0,41.0,33.0,30.0,27.4,24.0,72,58,50,30.43,30.13,9,2,17,0.01
2013-1-8,52.0,40.4,31.0,36.0,30.8,24.0,82,69,51,30.41,30.35,4,0,14,0.00
2013-1-9,51.0,42.0,34.0,42.0,35.9,29.0,88,79,51,30.37,30.22,8,0,16,0.00
2013-1-10,54.0,47.8,42.0,33.0,30.5,27.0,61,51,41,30.59,30.36,9,1,17,0.00
2013-1-11,43.0,41.2,37.0,40.0,34.6,29.0,94,78,61,30.50,30.09,2,0,6,0.02
2013-1-12,52.0,44.5,42.0,47.0,42.4,40.0,96,92,82,30.16,30.09,3,0,7,0.01
2013-1-13,55.0,47.8,42.0,54.0,46.8,41.0,98,96,95,30.14,29.97,3,0,7,0.03
2013-1-14,59.0,53.3,40.0,58.0,47.9,37.0,98,83,67,30.29,29.94,8,1,17,0.09
2013-1-15,40.0,38.4,35.0,38.0,36.8,33.0,95,94,88,30.33,30.14,4,0,9,0.83
2013-1-16,40.0,36.9,34.0,39.0,35.9,33.0,96,95,94,30.14,29.85,5,0,16,0.70
2013-1-17,42.0,40.2,37.0,40.0,34.8,30.0,95,81,65,30.11,29.96,3,0,11,0.03
2013-1-18,37.0,33.8,30.0,30.0,19.9,12.0,76,57,41,30.48,30.04,8,2,22,0.01
2013-1-19,52.0,40.5,31.0,31.0,27.0,21.0,76,60,44,30.42,29.96,8,4,19,0.00
2013-1-20,58.0,45.8,37.0,34.0,25.1,12.0,66,46,25,30.07,29.82,13,4,28,0.00
2013-1-21,45.0,36.3,30.0,29.0,20.3,12.0,59,52,44,30.09,29.77,12,2,28,0.00
2013-1-22,29.0,20.2,17.0,13.0,0.8,-3.0,52,42,33,30.28,29.91,14,7,30,0.00
2013-1-23,25.0,19.3,13.0,12.0,2.4,-1.0,65,47,37,30.34,30.14,8,1,16,0.00
2013-1-24,25.0,20.7,17.0,15.0,9.7,3.0,85,64,40,30.51,30.08,13,2,28,0.06
2013-1-25,22.0,19.3,17.0,17.0,7.4,1.0,85,61,43,30.50,30.07,4,0,14,0.01
2013-1-26,33.0,26.9,21.0,23.0,19.8,16.0,82,75,61,30.42,30.08,5,0,13,0.01
2013-1-27,37.0,30.0,25.0,21.0,19.3,16.0,80,65,49,30.59,30.42,4,0,9,0.01
2013-1-28,47.0,36.0,30.0,42.0,31.7,21.0,94,85,69,30.49,30.04,6,1,14,0.08
2013-1-29,68.0,54.2,44.0,54.0,47.3,41.0,91,79,60,30.11,29.98,5,1,11,0.03
2013-1-30,70.0,62.3,57.0,62.0,57.2,51.0,94,84,71,29.98,29.25,13,5,26,0.86
2013-1-31,62.0,39.9,30.0,61.0,22.6,14.0,96,50,38,29.91,29.19,16,8,33,1.32
2013-2-1,33.0,26.0,19.0,25.0,11.4,3.0,83,54,41,30.39,29.79,17,6,33,0.20
2013-2-2,30.0,22.9,16.0,25.0,12.3,3.0,90,65,46,30.39,30.00,8,1,18,0.01
2013-2-3,32.0,29.1,25.0,27.0,24.8,20.0,91,84,62,30.00,29.83,10,1,21,0.01
2013-2-4,35.0,29.7,24.0,23.0,16.3,11.0,63,57,50,30.09,29.88,12,2,22,0.00
2013-2-5,40.0,36.1,32.0,29.0,26.0,23.0,74,67,60,29.93,29.83,2,0,6,0.00
2013-2-6,45.0,37.7,33.0,31.0,27.0,22.0,82,66,50,30.34,29.93,12,2,21,0.00
2013-2-7,39.0,34.3,29.0,29.0,24.9,20.0,77,68,58,30.44,30.20,8,0,14,0.00
2013-2-8,41.0,36.3,32.0,38.0,31.7,23.0,94,84,61,30.20,29.73,14,3,28,0.23
2013-2-9,40.0,33.5,28.0,23.0,19.1,16.0,68,56,43,30.38,29.91,14,6,34,0.10
2013-2-10,43.0,34.0,24.0,27.0,19.1,15.0,76,55,36,30.47,30.24,7,0,14,0.00
2013-2-11,52.0,43.7,36.0,50.0,41.1,27.0,96,91,67,30.24,29.70,6,2,16,0.24
2013-2-12,56.0,48.8,42.0,43.0,30.4,28.0,83,49,37,29.98,29.78,13,2,25,0.07
2013-2-13,46.0,38.4,33.0,37.0,30.4,26.0,93,74,58,29.94,29.65,4,0,11,0.11
2013-2-14,49.0,39.0,32.0,32.0,29.6,27.0,94,71,47,30.01,29.76,7,1,14,0.20
2013-2-15,58.0,43.5,34.0,37.0,33.1,30.0,91,70,38,30.02,29.87,10,1,23,0.02
2013-2-16,38.0,35.3,31.0,34.0,29.3,17.0,93,79,55,30.01,29.82,9,1,17,0.08
2013-2-17,30.0,27.0,23.0,18.0,11.7,6.0,65,53,40,30.19,29.82,15,8,31,0.04
2013-2-18,41.0,29.8,20.0,19.0,11.3,7.0,60,46,33,30.38,30.15,10,1,19,0.00
2013-2-19,44.0,38.9,36.0,40.0,30.1,19.0,91,72,49,30.15,29.72,8,3,19,0.04
2013-2-20,38.0,32.2,24.0,25.0,16.0,9.0,60,51,43,30.16,29.84,13,6,27,0.02
2013-2-21,38.0,29.1,23.0,18.0,14.1,9.0,62,53,43,30.32,30.13,12,4,24,0.00
2013-2-22,33.0,30.7,29.0,29.0,22.9,17.0,89,73,58,30.37,30.20,2,0,9,0.04
2013-2-23,44.0,37.8,32.0,43.0,36.0,29.0,96,94,90,30.20,29.80,3,0,10,0.01
2013-2-24,51.0,41.8,32.0,40.0,31.6,19.0,94,70,41,30.10,29.78,15,4,25,0.01
2013-2-25,47.0,36.8,29.0,27.0,23.1,19.0,69,58,45,30.21,30.10,6,0,17,0.01
2013-2-26,43.0,36.7,30.0,42.0,32.5,24.0,95,85,68,30.21,29.59,9,3,19,0.55
2013-2-27,54.0,46.4,38.0,43.0,38.4,33.0,96,75,52,29.68,29.50,7,2,18,0.44
2013-2-28,46.0,42.5,39.0,37.0,30.3,25.0,82,62,44,29.72,29.62,10,3,20,0.00
2013-3-1,42.0,39.8,36.0,30.0,28.1,25.0,69,63,53,29.87,29.71,9,4,21,0.00
2013-3-2,36.0,32.7,29.0,26.0,21.9,19.0,71,64,55,29.88,29.80,11,3,18,0.00
2013-3-3,41.0,32.7,28.0,22.0,20.1,19.0,72,60,45,29.86,29.78,11,4,23,0.00
2013-3-4,44.0,36.9,29.0,22.0,18.2,14.0,58,47,39,30.02,29.93,14,5,28,0.00
2013-3-5,52.0,39.4,30.0,30.0,21.5,18.0,75,50,28,30.07,29.82,4,1,14,0.00
2013-3-6,38.0,34.1,31.0,35.0,32.1,29.0,95,92,77,29.98,29.58,10,3,30,0.55
2013-3-7,49.0,40.6,34.0,32.0,29.0,27.0,80,65,47,30.13,29.98,15,4,32,0.01
2013-3-8,50.0,41.4,35.0,30.0,28.0,25.0,72,59,46,30.25,30.12,11,4,26,0.00
2013-3-9,60.0,46.0,34.0,29.0,26.9,24.0,69,49,28,30.34,30.23,3,1,13,0.00
2013-3-10,63.0,47.9,34.0,35.0,28.2,22.0,84,50,21,30.32,30.20,5,1,14,0.00
2013-3-11,60.0,50.1,42.0,50.0,43.9,35.0,92,80,67,30.24,29.94,5,1,15,0.00
2013-3-12,58.0,52.7,42.0,55.0,46.0,31.0,96,78,58,29.96,29.68,10,3,23,0.86
2013-3-13,49.0,41.2,34.0,32.0,26.7,19.0,76,57,35,30.05,29.89,15,4,25,0.21
2013-3-14,46.0,36.8,31.0,21.0,18.0,15.0,60,47,34,30.12,30.01,14,6,30,0.00
2013-3-15,57.0,43.8,31.0,34.0,24.9,19.0,65,48,34,30.09,29.77,8,2,20,0.00
2013-3-16,60.0,47.9,40.0,51.0,37.5,32.0,88,68,52,29.89,29.62,5,1,13,0.05
2013-3-17,40.0,37.6,33.0,34.0,30.3,27.0,86,75,62,30.27,29.89,3,0,8,0.05
2013-3-18,37.0,35.8,32.0,35.0,29.9,23.0,93,80,59,30.32,29.88,6,1,11,0.21
2013-3-19,58.0,44.8,35.0,40.0,30.6,12.0,94,66,21,29.90,29.70,14,4,30,0.15
2013-3-20,52.0,44.0,36.0,23.0,16.4,12.0,46,33,26,29.98,29.75,12,4,30,0.00
2013-3-21,42.0,33.2,29.0,27.0,16.6,9.0,81,51,39,29.89,29.75,12,4,23,0.00
2013-3-22,48.0,35.7,27.0,23.0,17.1,10.0,57,47,35,29.99,29.87,11,3,24,0.00
2013-3-23,54.0,40.9,29.0,27.0,23.1,19.0,69,50,33,30.03,29.89,10,2,20,0.00
2013-3-24,42.0,36.9,32.0,32.0,24.9,22.0,93,63,48,29.99,29.65,7,0,10,0.03
2013-3-25,36.0,33.2,31.0,34.0,31.7,29.0,98,94,92,29.68,29.51,6,1,10,0.32
2013-3-26,49.0,40.0,33.0,34.0,31.1,27.0,95,73,45,29.97,29.69,10,3,22,0.03
2013-3-27,48.0,42.1,36.0,30.0,28.3,26.0,70,58,45,30.11,29.97,14,6,27,0.00
2013-3-28,46.0,41.7,35.0,32.0,29.0,26.0,69,61,51,30.22,30.08,11,4,23,0.01
2013-3-29,55.0,46.6,39.0,34.0,30.6,28.0,69,55,39,30.25,30.14,8,2,21,0.01
2013-3-30,60.0,48.9,38.0,35.0,29.7,28.0,74,50,29,30.22,30.09,8,1,16,0.00
2013-3-31,54.0,48.0,43.0,49.0,39.0,-99.9,94,75,52,30.11,29.74,5,1,20,0.02
2013-4-1,64.0,49.8,41.0,46.0,38.7,25.0,95,68,41,29.98,29.71,15,4,29,0.02
2013-4-2,50.0,41.7,36.0,25.0,17.6,15.0,53,38,27,30.15,29.98,13,4,28,0.00
2013-4-3,52.0,40.8,32.0,21.0,17.4,14.0,56,40,25,30.37,30.16,11,3,25,0.00
2013-4-4,48.0,38.2,28.0,35.0,20.3,15.0,90,50,31,30.41,30.08,7,1,15,0.02
2013-4-5,65.0,48.9,37.0,38.0,33.6,24.0,95,62,29,30.08,29.81,9,2,18,0.30
2013-4-6,58.0,47.1,36.0,31.0,24.3,20.0,60,41,29,30.32,30.02,5,1,14,0.07
2013-4-7,69.0,53.4,39.0,44.0,36.8,28.0,78,55,37,30.27,29.97,12,4,24,0.00
2013-4-8,80.0,67.7,53.0,52.0,47.2,43.0,69,49,34,30.06,29.93,8,2,19,0.00
2013-4-9,86.0,74.8,62.0,58.0,54.4,52.0,70,50,36,30.07,29.92,7,2,16,0.00
2013-4-10,91.0,79.4,67.0,61.0,56.8,54.0,64,47,35,29.96,29.77,8,2,18,0.00
2013-4-11,87.0,73.1,56.0,62.0,58.1,52.0,86,61,38,29.87,29.71,6,1,20,0.00
2013-4-12,73.0,59.8,51.0,67.0,57.0,49.0,98,91,80,29.80,29.55,5,1,18,0.53
2013-4-13,69.0,56.9,45.0,53.0,42.4,38.0,90,60,36,29.93,29.73,5,1,19,0.04
2013-4-14,67.0,56.2,44.0,46.0,41.1,38.0,81,59,39,30.12,29.93,9,1,18,0.00
2013-4-15,62.0,57.7,54.0,52.0,47.9,44.0,83,70,63,30.28,30.11,3,0,10,0.01
2013-4-16,75.0,62.8,54.0,60.0,54.6,48.0,86,75,58,30.30,30.10,8,1,18,0.01
2013-4-17,78.0,65.8,58.0,65.0,59.5,56.0,97,81,58,30.22,30.10,7,0,12,0.06
2013-4-18,76.0,65.2,59.0,65.0,58.9,55.0,96,81,60,30.22,29.99,5,0,18,0.04
2013-4-19,78.0,67.0,51.0,66.0,61.2,50.0,96,82,65,29.99,29.57,11,2,28,0.71
2013-4-20,60.0,51.8,45.0,48.0,33.9,27.0,95,53,35,30.32,29.78,11,3,25,0.75
2013-4-21,55.0,46.6,38.0,34.0,28.1,24.0,64,49,35,30.58,30.32,3,0,12,0.00
2013-4-22,58.0,47.5,37.0,41.0,36.6,31.0,83,67,52,30.57,30.39,6,1,15,0.00
2013-4-23,61.0,51.2,46.0,47.0,42.1,37.0,84,71,57,30.40,30.11,5,0,9,0.00
2013-4-24,78.0,60.6,45.0,58.0,49.8,41.0,93,70,44,30.11,29.78,12,2,31,0.00
2013-4-25,65.0,54.7,44.0,50.0,36.3,32.0,76,51,30,30.30,29.95,16,2,28,0.01
2013-4-26,66.0,55.7,44.0,42.0,38.2,35.0,81,54,34,30.44,30.29,7,0,14,0.01
2013-4-27,71.0,58.5,45.0,46.0,41.6,38.0,84,56,36,30.41,30.27,2,0,10,0.00
2013-4-28,66.0,56.7,47.0,52.0,42.6,-99.9,83,63,39,30.29,30.13,3,0,15,0.01
2013-4-29,58.0,54.7,52.0,57.0,52.8,44.0,98,94,65,30.15,30.03,2,0,10,0.26
2013-4-30,58.0,55.0,53.0,57.0,53.4,48.0,98,95,78,30.27,30.07,5,1,11,0.05
2013-5-1,70.0,58.3,46.0,50.0,44.7,40.0,85,63,37,30.41,30.27,5,1,12,0.01
2013-5-2,69.0,56.0,43.0,53.0,46.6,41.0,94,72,53,30.43,30.31,5,0,12,0.00
2013-5-3,69.0,56.0,47.0,48.0,44.7,41.0,92,68,42,30.37,30.29,5,0,12,0.00
2013-5-4,68.0,56.4,47.0,49.0,44.6,40.0,85,66,45,30.33,30.17,7,0,13,0.00
2013-5-5,63.0,53.0,44.0,47.0,42.8,39.0,84,69,51,30.24,30.14,4,0,13,0.00
2013-5-6,61.0,54.6,50.0,57.0,50.9,44.0,94,87,80,30.17,30.04,4,1,12,0.00
2013-5-7,62.0,58.7,57.0,61.0,57.7,55.0,98,97,94,30.05,29.91,4,1,15,0.44
2013-5-8,70.0,45.3,56.0,59.0,18.1,-99.9,98,66,60,30.00,29.92,4,0,23,0.15
2013-5-9,73.0,61.0,53.0,65.0,57.2,52.0,97,88,61,29.99,29.91,5,0,13,0.35
2013-5-10,83.0,67.6,55.0,67.0,57.3,-99.9,98,77,46,30.01,29.85,7,1,18,0.43
2013-5-11,78.0,66.8,62.0,66.0,62.9,61.0,98,88,63,29.92,29.69,4,0,12,0.66
2013-5-12,64.0,58.8,50.0,62.0,41.5,-99.9,97,58,33,30.03,29.74,11,3,25,0.17
2013-5-13,60.0,51.2,43.0,35.0,30.9,26.0,74,47,31,30.15,30.02,11,2,24,0.00
2013-5-14,64.0,52.1,38.0,42.0,34.6,30.0,78,53,34,30.21,30.04,6,0,16,0.00
2013-5-15,85.0,66.9,54.0,65.0,54.0,41.0,76,64,49,30.04,29.67,9,1,23,0.00
2013-5-16,83.0,68.8,66.0,64.0,39.1,-99.9,75,61,48,29.91,29.74,11,2,23,0.00
2013-5-17,82.0,70.8,60.0,60.0,48.9,-99.9,85,58,38,30.13,29.91,6,1,13,0.00
2013-5-18,68.0,61.9,58.0,59.0,56.1,51.0,94,82,56,30.24,30.13,1,0,9,0.05
2013-5-19,76.0,65.0,59.0,67.0,62.2,57.0,98,91,73,30.19,30.07,2,0,5,0.02
2013-5-20,80.0,71.0,65.0,71.0,66.7,63.0,95,86,69,30.11,29.97,5,1,10,0.01
2013-5-21,81.0,73.1,67.0,71.0,68.3,66.0,95,85,69,29.99,29.87,6,1,12,0.00
2013-5-22,86.0,77.0,70.0,73.0,70.2,64.0,96,81,64,29.92,29.83,6,1,14,0.00
2013-5-23,80.0,72.4,63.0,69.0,67.3,61.0,94,84,66,29.90,29.74,5,1,17,0.17
2013-5-24,63.0,56.2,48.0,62.0,49.0,35.0,97,78,58,30.14,29.73,13,4,27,0.20
2013-5-25,67.0,54.1,43.0,42.0,36.7,32.0,69,53,36,30.18,30.07,11,4,32,0.01
2013-5-26,73.0,60.4,48.0,44.0,38.8,36.0,64,46,31,30.21,30.11,8,1,18,0.00
2013-5-27,71.0,61.8,50.0,50.0,44.4,40.0,75,54,38,30.27,30.17,2,0,9,0.00
2013-5-28,83.0,67.5,58.0,70.0,60.3,50.0,97,79,59,30.19,30.05,5,0,13,0.53
2013-5-29,88.0,76.4,66.0,72.0,67.3,64.0,97,76,51,30.12,30.06,6,1,14,0.52
2013-5-30,90.0,79.8,68.0,72.0,67.4,63.0,85,67,47,30.17,30.09,5,0,12,0.00
2013-5-31,89.0,79.6,68.0,70.0,66.3,64.0,86,65,48,30.15,30.02,7,1,19,0.00
2013-6-1,90.0,80.2,70.0,72.0,67.6,64.0,84,66,51,30.03,29.91,6,1,18,0.00
2013-6-2,85.0,76.6,69.0,72.0,67.0,-99.9,96,76,63,29.91,29.83,5,1,17,0.16
2013-6-3,80.0,71.5,66.0,70.0,66.4,59.0,98,85,64,29.93,29.81,9,0,20,0.46
2013-6-4,76.0,67.3,59.0,59.0,50.5,44.0,77,57,37,30.11,29.93,2,0,11,0.02
2013-6-5,79.0,68.4,56.0,61.0,55.2,51.0,86,64,44,30.16,30.04,3,0,10,0.00
2013-6-6,73.0,66.9,62.0,64.0,60.2,53.0,97,80,64,30.08,29.85,1,0,12,0.36
2013-6-7,69.0,63.7,64.0,68.0,57.1,-99.9,98,92,97,29.85,29.56,4,0,15,2.34
2013-6-8,80.0,66.9,65.0,66.0,53.8,-99.9,98,73,55,30.07,29.68,5,1,14,0.05
2013-6-9,82.0,72.9,65.0,73.0,66.1,60.0,89,80,59,30.18,30.07,1,0,9,0.01
2013-6-10,77.0,71.3,68.0,75.0,69.9,67.0,98,96,88,30.09,29.78,5,0,15,3.17
2013-6-11,82.0,47.6,69.0,69.0,1.8,-99.9,97,42,59,29.84,29.77,8,1,19,1.62
2013-6-12,88.0,76.5,69.0,70.0,65.5,62.0,81,70,50,29.85,29.80,7,1,17,0.00
2013-6-13,86.0,74.7,68.0,74.0,67.7,58.0,94,80,57,29.78,29.45,11,2,37,0.07
2013-6-14,78.0,68.8,59.0,59.0,56.3,53.0,93,66,46,29.96,29.58,10,1,26,0.06
2013-6-15,82.0,72.5,62.0,61.0,57.9,55.0,79,61,42,30.06,29.96,6,1,17,0.01
2013-6-16,84.0,74.7,66.0,70.0,64.9,58.0,86,72,56,30.01,29.87,5,0,18,0.00
2013-6-17,85.0,77.7,71.0,72.0,69.0,66.0,87,75,59,29.95,29.86,7,0,12,0.00
2013-6-18,78.0,70.7,64.0,72.0,68.3,63.0,97,92,82,29.90,29.79,4,0,10,0.21
2013-6-19,75.0,68.2,63.0,65.0,62.8,60.0,97,83,66,30.15,29.87,3,0,9,0.01
2013-6-20,77.0,68.0,63.0,65.0,61.4,59.0,93,80,63,30.26,30.14,3,0,9,0.00
2013-6-22,85.0,81.4,73.0,69.0,67.1,64.0,79,62,55,30.24,30.13,3,1,14,0.00
2013-6-23,83.0,74.8,70.0,75.0,70.0,66.0,98,86,69,30.18,30.06,4,0,10,0.84
2013-6-24,90.0,77.0,71.0,75.0,71.5,68.0,96,84,56,30.12,30.02,1,0,7,0.03
2013-6-25,91.0,81.2,69.0,74.0,70.9,63.0,95,73,54,30.04,29.88,4,1,15,0.02
2013-6-26,88.0,77.7,69.0,77.0,70.4,66.0,93,79,60,29.91,29.80,3,0,9,0.03
2013-6-27,81.0,72.9,69.0,73.0,69.7,67.0,96,90,78,29.83,29.62,6,0,14,0.05
2013-6-28,86.0,69.0,69.0,73.0,59.7,-99.9,98,84,64,29.63,29.49,4,0,14,1.92
2013-6-29,86.0,43.1,76.0,71.0,-12.0,-99.9,80,32,51,29.68,29.52,5,0,11,0.01
2013-6-30,86.0,77.6,73.0,77.0,73.6,71.0,95,88,70,29.84,29.68,4,0,10,0.04
2013-7-1,81.0,75.0,71.0,74.0,71.4,68.0,98,89,75,29.97,29.83,5,0,17,0.23
2013-7-2,79.0,75.0,73.0,74.0,72.2,71.0,95,91,82,30.17,29.97,7,1,18,0.04
2013-7-3,84.0,76.5,71.0,76.0,72.7,69.0,97,89,76,30.22,30.16,6,1,13,0.27
2013-7-4,87.0,80.4,74.0,76.0,73.3,71.0,95,80,59,30.26,30.16,8,1,16,0.01
2013-7-5,87.0,79.8,74.0,75.0,73.1,71.0,93,81,64,30.23,30.12,5,1,18,0.00
2013-7-6,91.0,81.9,75.0,77.0,73.8,71.0,93,78,60,30.19,30.06,5,0,17,0.00
2013-7-7,89.0,79.7,71.0,77.0,72.5,68.0,95,80,65,30.09,29.99,7,1,19,0.04
2013-7-8,85.0,74.6,70.0,75.0,70.0,68.0,97,87,61,30.11,30.03,1,0,10,0.29
2013-7-9,83.0,77.1,72.0,76.0,72.0,69.0,93,85,75,30.10,29.99,1,0,10,0.03
2013-7-10,87.0,77.4,72.0,78.0,71.0,-99.9,97,85,67,30.01,29.85,13,0,29,0.15
2013-7-11,84.0,76.4,72.0,74.0,71.1,69.0,95,85,64,29.91,29.84,3,0,12,0.02
2013-7-12,76.0,69.0,66.0,72.0,67.2,65.0,98,95,78,30.01,29.89,3,0,17,1.49
2013-7-13,84.0,75.2,69.0,75.0,71.1,68.0,97,87,74,30.26,30.01,1,0,10,0.04
2013-7-14,88.0,80.1,73.0,76.0,73.6,71.0,97,82,62,30.33,30.26,2,0,10,0.00
2013-7-15,92.0,81.1,73.0,77.0,73.3,71.0,95,79,55,30.30,30.18,3,0,11,0.00
2013-7-16,93.0,84.7,79.0,75.0,72.5,70.0,80,68,50,30.22,30.15,2,0,10,0.00
2013-7-17,93.0,82.5,77.0,76.0,72.8,71.0,82,73,53,30.20,30.09,1,0,8,0.00
2013-7-18,94.0,84.5,78.0,80.0,76.0,73.0,87,76,59,30.11,29.98,2,0,7,0.00
2013-7-19,93.0,86.5,79.0,79.0,76.8,72.0,85,73,62,30.01,29.87,9,0,17,0.00
2013-7-20,92.0,84.5,78.0,77.0,73.3,-99.9,88,71,57,29.90,29.78,5,0,14,0.00
2013-7-21,91.0,80.6,75.0,75.0,72.1,69.0,91,76,55,29.93,29.87,5,0,12,0.00
2013-7-22,89.0,78.2,73.0,76.0,73.2,70.0,94,85,65,29.92,29.75,6,0,14,0.00
2013-7-23,87.0,78.2,72.0,74.0,71.0,68.0,97,80,58,29.77,29.64,6,1,18,0.05
2013-7-24,84.0,77.4,72.0,70.0,67.0,60.0,85,71,56,29.90,29.67,6,1,15,0.00
2013-7-25,81.0,71.5,63.0,65.0,58.1,53.0,78,63,50,30.02,29.90,4,0,12,0.00
2013-7-26,84.0,72.7,62.0,65.0,61.8,60.0,93,71,48,30.08,30.01,4,0,11,0.00
2013-7-27,85.0,73.9,68.0,71.0,68.3,64.0,97,84,62,30.05,29.91,6,1,17,0.29
2013-7-28,82.0,73.3,67.0,73.0,69.5,66.0,98,88,69,29.98,29.88,2,0,11,0.13
2013-7-29,82.0,71.7,64.0,70.0,61.0,57.0,91,71,44,30.15,29.97,6,0,12,0.01
2013-7-30,82.0,72.9,64.0,63.0,60.3,57.0,80,66,51,30.23,30.13,5,0,10,0.00
2013-7-31,78.0,72.5,67.0,70.0,66.2,62.0,97,81,68,30.14,30.02,8,0,17,0.08
2013-8-1,80.0,47.7,67.0,74.0,10.6,-99.9,98,58,74,30.02,29.80,2,0,11,0.41
2013-8-2,85.0,75.5,66.0,69.0,66.0,64.0,96,74,52,29.96,29.85,6,1,13,0.04
2013-8-3,78.0,72.1,67.0,68.0,66.2,64.0,95,82,65,29.96,29.91,4,0,10,0.04
2013-8-4,80.0,71.6,64.0,67.0,60.9,56.0,96,72,46,30.01,29.90,8,2,20,0.03
2013-8-5,81.0,70.2,61.0,61.0,56.7,54.0,80,63,44,30.10,30.00,4,0,9,0.00
2013-8-6,71.0,68.6,66.0,68.0,64.7,60.0,96,87,72,30.07,30.00,4,0,10,0.06
2013-8-7,83.0,74.7,69.0,74.0,69.3,66.0,94,84,72,30.07,29.98,7,1,14,0.02
2013-8-8,84.0,77.7,74.0,76.0,72.8,71.0,92,85,72,30.03,29.97,6,0,15,0.01
2013-8-9,90.0,81.5,76.0,77.0,73.9,72.0,92,78,61,29.97,29.84,5,1,16,0.00
2013-8-10,83.0,77.8,73.0,72.0,67.7,61.0,85,72,51,30.07,29.93,1,0,9,0.00
2013-8-11,83.0,76.5,72.0,71.0,68.5,66.0,88,77,58,30.11,30.00,4,0,10,0.00
2013-8-12,89.0,77.9,72.0,74.0,69.1,65.0,92,76,46,30.02,29.91,4,0,11,0.00
2013-8-13,85.0,76.2,69.0,74.0,68.6,-99.9,97,81,60,29.91,29.72,6,1,18,0.23
2013-8-14,74.0,65.5,59.0,69.0,52.4,-99.9,97,66,51,30.09,29.80,6,1,21,0.21
2013-8-15,77.0,58.6,56.0,58.0,35.6,-99.9,87,62,42,30.18,30.08,3,0,12,0.00
2013-8-16,78.0,65.7,57.0,58.0,51.7,-99.9,91,67,49,30.19,30.12,1,0,6,0.00
2013-8-17,79.0,69.3,58.0,63.0,59.3,56.0,93,72,52,30.26,30.19,3,0,12,0.00
2013-8-18,70.0,65.8,63.0,66.0,60.9,-99.9,97,87,73,30.23,30.16,1,0,7,0.16
2013-8-19,73.0,63.4,62.0,67.0,49.6,-99.9,96,87,81,30.18,30.07,3,0,7,0.04
2013-8-20,87.0,74.1,65.0,72.0,65.6,-99.9,95,79,55,30.16,30.08,4,0,11,0.00
2013-8-21,87.0,77.0,70.0,74.0,71.3,69.0,97,84,57,30.19,30.07,4,0,13,0.09
2013-8-22,88.0,78.6,71.0,71.0,69.6,68.0,97,76,55,30.09,29.92,7,1,15,0.09
2013-8-23,76.0,70.6,63.0,71.0,65.3,58.0,97,84,70,30.11,29.93,3,0,9,0.22
2013-8-24,82.0,70.0,60.0,65.0,60.7,58.0,93,74,50,30.33,30.11,2,0,9,0.01
2013-8-25,82.0,69.2,60.0,64.0,57.9,-99.9,96,72,46,30.41,30.27,3,0,10,0.00
2013-8-26,87.0,74.6,64.0,67.0,61.9,57.0,80,66,46,30.29,30.01,3,0,14,0.00
2013-8-27,90.0,77.6,71.0,73.0,67.9,65.0,83,73,54,30.01,29.89,7,1,16,0.00
2013-8-28,77.0,74.0,73.0,73.0,71.9,70.0,95,94,87,29.88,29.82,2,0,8,0.14
2013-8-29,85.0,75.8,71.0,73.0,70.4,67.0,96,84,62,30.01,29.83,3,0,10,0.03
2013-8-30,85.0,76.2,70.0,72.0,69.5,67.0,93,81,63,30.03,29.89,5,1,14,0.00
2013-8-31,88.0,78.4,70.0,75.0,71.3,68.0,92,79,61,29.92,29.80,5,1,13,0.00
2013-9-1,91.0,79.2,70.0,75.0,68.7,-99.9,90,74,55,29.85,29.75,2,0,12,0.00
2013-9-2,89.0,78.2,70.0,74.0,71.8,68.0,98,82,59,29.81,29.71,4,0,13,0.11
2013-9-3,84.0,76.9,70.0,73.0,64.6,56.0,89,67,48,29.95,29.72,6,1,15,0.01
2013-9-4,83.0,70.9,61.0,62.0,56.9,53.0,80,63,37,30.08,29.95,3,0,12,0.00
2013-9-5,83.0,73.4,63.0,65.0,59.6,52.0,83,63,49,30.11,30.00,8,1,18,0.00
2013-9-6,78.0,66.5,58.0,55.0,50.4,46.0,72,58,38,30.25,30.12,4,0,13,0.00
2013-9-7,78.0,67.0,55.0,64.0,58.4,52.0,88,75,57,30.14,29.93,3,0,11,0.00
2013-9-8,87.0,74.5,66.0,69.0,61.9,-99.9,89,68,51,30.02,29.86,5,1,13,0.00
2013-9-9,78.0,70.7,63.0,68.0,59.6,51.0,86,68,60,30.19,30.03,2,0,10,0.00
2013-9-10,90.0,79.3,71.0,76.0,71.8,68.0,93,79,56,30.17,30.08,4,1,11,0.00
2013-9-11,92.0,82.8,74.0,77.0,73.2,72.0,93,74,53,30.14,30.00,5,1,15,0.00
2013-9-12,90.0,77.2,69.0,74.0,70.6,68.0,98,82,57,30.00,29.75,5,0,13,0.24
2013-9-13,78.0,69.3,61.0,69.0,59.1,51.0,98,72,44,29.92,29.70,6,1,18,0.09
2013-9-14,70.0,59.9,53.0,51.0,47.5,45.0,78,64,48,30.15,29.92,7,1,16,0.09
2013-9-15,75.0,60.2,49.0,59.0,49.7,-99.9,91,73,53,30.23,30.09,5,0,14,0.00
2013-9-16,72.0,64.8,60.0,62.0,57.9,55.0,95,79,61,30.21,30.03,6,1,13,0.06
2013-9-17,69.0,59.0,51.0,55.0,46.4,42.0,84,65,39,30.42,30.22,4,0,9,0.01
2013-9-18,59.0,49.8,47.0,49.0,46.0,44.0,93,87,74,30.34,30.19,0,0,0,0.00
2013-9-19,76.0,64.3,53.0,59.0,55.0,50.0,93,74,54,30.19,30.08,2,0,10,0.00
2013-9-20,79.0,67.6,56.0,63.0,58.9,54.0,93,75,57,30.09,29.96,3,0,11,0.00
2013-9-21,75.0,65.6,61.0,65.0,61.2,57.0,98,86,67,29.98,29.68,7,1,16,0.79
2013-9-22,70.0,62.2,57.0,61.0,53.2,-99.9,98,77,57,29.94,29.73,7,0,13,0.20
2013-9-23,66.0,57.5,52.0,49.0,46.8,44.0,85,68,53,30.08,29.93,5,0,14,0.15
2013-9-24,71.0,57.8,47.0,52.0,48.0,44.0,90,71,50,30.11,29.94,3,0,10,0.00
2013-9-25,73.0,61.2,49.0,54.0,48.8,45.0,91,67,39,29.98,29.87,1,0,5,0.00
2013-9-26,74.0,61.9,55.0,58.0,53.9,52.0,89,76,54,30.06,29.91,2,0,6,0.00
2013-9-27,70.0,62.3,55.0,60.0,55.9,52.0,92,80,65,30.23,30.07,1,0,5,0.00
2013-9-28,68.0,61.8,56.0,57.0,54.5,53.0,91,78,62,30.30,30.21,3,0,7,0.00
2013-9-29,73.0,59.9,51.0,59.0,51.8,-99.9,94,78,58,30.22,30.06,3,0,6,0.00
2013-9-30,74.0,62.2,52.0,58.0,53.6,49.0,93,75,54,30.09,29.98,2,0,7,0.00
2013-10-1,71.0,67.8,62.0,61.0,59.8,56.0,80,76,71,30.03,29.99,1,0,6,0.00
2013-10-2,84.0,73.0,60.0,64.0,60.7,56.0,89,67,49,30.08,29.99,4,0,13,0.00
2013-10-3,81.0,72.5,62.0,67.0,63.4,58.0,90,74,57,30.11,30.03,4,0,10,0.00
2013-10-4,86.0,74.3,63.0,69.0,65.5,61.0,94,75,54,30.08,30.00,4,0,10,0.00
2013-10-5,86.0,76.2,67.0,69.0,66.7,63.0,91,73,56,30.08,29.99,3,0,10,0.00
2013-10-6,86.0,76.0,68.0,70.0,66.9,64.0,92,74,54,30.02,29.91,6,1,18,0.00
2013-10-7,73.0,65.6,54.0,70.0,62.8,48.0,96,90,76,30.04,29.79,6,1,22,0.94
2013-10-8,65.0,57.6,49.0,51.0,48.3,45.0,89,72,58,30.27,30.04,2,0,13,0.01
2013-10-9,60.0,55.7,53.0,53.0,50.1,47.0,94,82,73,30.30,30.19,4,0,13,0.17
2013-10-10,57.0,54.5,52.0,56.0,53.3,51.0,97,96,94,30.19,29.97,2,0,13,1.41
2013-10-11,60.0,22.7,55.0,58.0,-39.0,-99.9,98,38,97,29.98,29.92,2,0,11,2.51
2013-10-12,64.0,15.1,60.0,61.0,-60.5,-99.9,97,23,90,30.15,29.97,6,1,14,1.62
2013-10-13,62.0,58.8,57.0,59.0,55.4,-99.9,98,92,87,30.31,30.14,4,1,13,0.08
2013-10-14,68.0,59.6,55.0,58.0,54.7,53.0,93,84,67,30.33,30.22,2,0,7,0.01
2013-10-15,70.0,59.5,51.0,58.0,51.9,48.0,98,78,48,30.24,30.08,2,0,8,0.01
2013-10-16,70.0,63.4,59.0,63.0,60.0,57.0,96,89,78,30.09,29.91,4,0,9,0.01
2013-10-17,74.0,66.4,60.0,65.0,62.2,59.0,97,87,72,29.91,29.72,5,1,15,0.01
2013-10-18,64.0,57.8,51.0,57.0,46.0,42.0,81,65,51,30.02,29.81,6,1,19,0.00
2013-10-19,63.0,55.6,47.0,59.0,51.0,44.0,94,85,68,30.00,29.78,3,0,14,0.00
2013-10-20,61.0,52.8,46.0,53.0,38.1,-99.9,85,60,42,30.09,29.85,8,1,23,0.00
2013-10-21,64.0,52.2,42.0,48.0,43.5,39.0,95,74,47,30.15,29.97,6,0,16,0.00
2013-10-22,65.0,54.5,50.0,51.0,43.7,-99.9,85,70,49,29.97,29.81,5,0,11,0.00
2013-10-23,56.0,49.2,44.0,42.0,36.8,31.0,91,64,39,29.89,29.65,7,1,19,0.09
2013-10-24,49.0,44.3,40.0,36.0,29.4,24.0,74,57,37,30.13,29.89,10,1,19,0.02
2013-10-25,53.0,46.9,40.0,32.0,29.5,27.0,66,51,42,30.32,30.13,6,2,23,0.00
2013-10-26,54.0,44.8,32.0,31.0,28.5,27.0,85,55,36,30.30,29.94,6,1,19,0.00
2013-10-27,59.0,49.3,41.0,38.0,32.8,-99.9,78,56,39,30.14,29.95,8,1,13,0.00
2013-10-28,62.0,48.0,39.0,43.0,36.4,-99.9,88,69,41,30.27,30.14,3,0,9,0.00
2013-10-29,61.0,50.4,40.0,43.0,40.2,37.0,88,70,44,30.37,30.27,2,0,5,0.00
2013-10-30,61.0,54.5,50.0,54.0,50.1,44.0,94,86,77,30.32,30.15,4,0,11,0.03
2013-10-31,67.0,59.1,53.0,59.0,54.9,51.0,95,87,72,30.19,29.80,5,1,17,0.01
2013-11-1,70.0,65.6,60.0,62.0,59.1,55.0,93,80,68,29.78,29.60,6,1,24,0.10
2013-11-2,67.0,58.0,50.0,57.0,44.7,36.0,92,63,44,29.88,29.65,6,1,19,0.09
2013-11-3,55.0,48.0,42.0,41.0,29.9,-99.9,78,53,25,30.44,29.88,5,0,18,0.00
2013-11-4,45.0,39.4,33.0,28.0,22.8,19.0,68,52,40,30.62,30.45,0,0,9,0.00
2013-11-5,56.0,46.1,36.0,46.0,37.1,27.0,78,71,62,30.60,30.46,0,0,1,0.00
2013-11-6,66.0,57.0,50.0,52.0,48.4,46.0,85,74,56,30.46,30.07,5,0,15,0.00
2013-11-7,61.0,53.2,44.0,54.0,44.6,21.0,93,74,40,30.08,29.87,11,2,31,0.01
2013-11-8,49.0,42.3,37.0,28.0,24.3,20.0,66,49,33,30.32,30.07,7,1,21,0.01
2013-11-9,53.0,42.4,31.0,30.0,25.1,-99.9,84,55,35,30.35,30.04,7,1,16,0.00
2013-11-10,62.0,49.2,39.0,34.0,28.2,24.0,68,46,26,30.22,29.94,12,2,28,0.00
2013-11-11,55.0,47.3,37.0,31.0,28.1,25.0,70,48,34,30.31,30.01,7,1,17,0.00
2013-11-12,50.0,40.6,32.0,36.0,21.7,12.0,62,47,37,30.40,29.96,11,2,26,0.00
2013-11-13,41.0,34.6,30.0,19.0,17.6,15.0,61,50,38,30.47,30.39,7,1,20,0.00
2013-11-14,54.0,40.0,28.0,25.0,19.4,15.0,68,46,22,30.38,30.22,3,0,9,0.00
2013-11-15,58.0,45.2,32.0,42.0,27.3,23.0,84,52,26,30.27,30.18,3,0,9,0.05
2013-11-16,51.0,47.4,45.0,49.0,44.2,-99.9,96,92,85,30.32,30.22,0,0,3,0.41
2013-11-17,61.0,56.5,50.0,56.0,53.5,49.0,96,90,81,30.22,29.76,5,1,15,0.01
2013-11-18,66.0,58.4,50.0,59.0,37.5,21.0,93,54,18,29.94,29.70,12,3,27,0.10
2013-11-19,49.0,43.5,38.0,26.0,24.6,23.0,58,47,37,30.36,29.94,12,2,22,0.00
2013-11-20,45.0,38.1,33.0,28.0,24.0,21.0,73,57,42,30.55,30.36,3,0,9,0.00
2013-11-21,49.0,41.7,32.0,38.0,33.0,28.0,86,72,61,30.55,30.39,0,0,4,0.00
2013-12-14,39.0,35.1,33.0,35.0,27.7,-99.9,95,78,64,30.31,29.71,5,1,14,0.37
2013-12-15,45.0,37.0,31.0,36.0,28.7,21.0,94,74,53,29.94,29.63,12,3,26,0.01
2013-12-16,36.0,34.3,32.0,25.0,23.4,21.0,71,64,57,30.18,29.94,6,0,11,0.00
2013-12-17,38.0,34.7,33.0,34.0,28.7,25.0,90,78,71,30.15,29.93,2,0,6,0.01
2013-12-18,40.0,34.3,30.0,31.0,23.6,18.0,92,66,46,30.21,29.98,9,2,21,0.01
2013-12-19,58.0,43.4,29.0,28.0,25.4,21.0,80,52,30,30.20,30.06,7,1,15,0.00
2013-12-20,58.0,51.8,44.0,45.0,33.3,27.0,66,49,39,30.10,30.00,6,2,14,0.00